createdAt,value
2023-01-01T00:00:43.927Z,100.00
2023-01-01T00:05:45.594Z,100.00
2023-01-01T00:10:47.229Z,100.00
2023-01-01T00:15:48.815Z,100.00
2023-01-01T00:20:50.699Z,100.00
2023-01-01T00:25:52.525Z,100.00
2023-01-01T00:30:54.232Z,100.00
2023-01-01T00:35:55.826Z,100.00
2023-01-01T00:40:57.850Z,100.00
2023-01-01T00:45:59.572Z,100.00
2023-01-01T00:51:01.859Z,100.00
2023-01-01T00:56:04.409Z,100.00
2023-01-01T01:01:06.165Z,100.00
2023-01-01T01:06:11.254Z,100.00
2023-01-01T01:11:22.020Z,100.00
2023-01-01T01:16:26.487Z,100.00
2023-01-01T01:21:30.619Z,100.00
2023-01-01T01:26:34.512Z,100.00
2023-01-01T01:31:36.245Z,100.00
2023-01-01T01:36:37.865Z,100.00
2023-01-01T01:41:39.668Z,100.00
2023-01-01T01:46:44.914Z,100.00
2023-01-01T01:51:46.558Z,100.00
2023-01-01T01:57:00.179Z,100.00
2023-01-01T02:02:02.698Z,100.00
2023-01-01T02:07:07.270Z,100.00
2023-01-01T02:12:09.000Z,100.00
2023-01-01T02:17:21.219Z,100.00
2023-01-01T02:22:33.021Z,100.00
2023-01-01T02:28:07.182Z,100.00
2023-01-01T02:33:17.935Z,100.00
2023-01-01T02:38:25.922Z,100.00
2023-01-01T02:43:27.736Z,100.00
2023-01-01T02:48:50.351Z,100.00
2023-01-01T02:54:04.127Z,100.00
2023-01-01T02:59:47.065Z,100.00
2023-01-01T03:05:13.744Z,100.00
2023-01-01T03:10:22.723Z,100.00
2023-01-01T03:15:30.583Z,100.00
2023-01-01T03:20:36.443Z,100.00
2023-01-01T03:25:45.808Z,100.00
2023-01-01T03:30:50.844Z,100.00
2023-01-01T03:36:18.248Z,100.00
2023-01-01T03:41:23.822Z,100.00
2023-01-01T03:46:30.998Z,100.00
2023-01-01T03:51:44.479Z,100.00
2023-01-01T03:56:52.344Z,100.00
2023-01-01T04:01:58.405Z,100.00
2023-01-01T04:07:14.069Z,100.00
2023-01-01T04:12:18.321Z,100.00
2023-01-01T04:17:20.126Z,100.00
2023-01-01T04:22:23.378Z,100.00
2023-01-01T04:27:25.298Z,100.00
2023-01-01T04:32:27.183Z,100.00
2023-01-01T04:37:28.793Z,100.00
2023-01-01T04:42:30.524Z,100.00
2023-01-01T04:47:32.540Z,100.00
2023-01-01T04:52:34.337Z,100.00
2023-01-01T04:57:35.995Z,100.00
2023-01-01T05:02:37.899Z,100.00
2023-01-01T05:07:39.564Z,100.00
2023-01-01T05:12:41.370Z,100.00
2023-01-01T05:17:43.182Z,100.00
2023-01-01T05:22:47.241Z,100.00
2023-01-01T05:27:48.814Z,100.00
2023-01-01T05:32:50.439Z,100.00
2023-01-01T05:37:52.035Z,100.00
2023-01-01T05:42:54.325Z,100.00
2023-01-01T05:47:56.717Z,100.00
2023-01-01T05:52:58.366Z,100.00
2023-01-01T05:57:59.960Z,100.00
2023-01-01T06:03:01.523Z,100.00
2023-01-01T06:08:03.132Z,100.00
2023-01-01T06:13:11.180Z,100.00
2023-01-01T06:18:14.861Z,100.00
2023-01-01T06:23:16.848Z,100.00
2023-01-01T06:28:18.589Z,100.00
2023-01-01T06:33:20.196Z,100.00
2023-01-01T06:38:22.073Z,100.00
2023-01-01T06:43:23.956Z,100.00
2023-01-01T06:48:25.567Z,100.00
2023-01-01T06:53:27.211Z,100.00
2023-01-01T06:58:29.003Z,100.00
2023-01-01T07:03:30.773Z,100.00
2023-01-01T07:08:32.609Z,100.00
2023-01-01T07:13:34.194Z,100.00
2023-01-01T07:18:36.443Z,100.00
2023-01-01T07:23:38.259Z,100.00
2023-01-01T07:28:41.097Z,100.00
2023-01-01T07:33:42.709Z,100.00
2023-01-01T07:38:44.309Z,100.00
2023-01-01T07:43:46.083Z,100.00
2023-01-01T07:48:48.002Z,100.00
2023-01-01T07:53:49.845Z,100.00
2023-01-01T07:58:51.691Z,100.00
2023-01-01T08:03:53.494Z,100.00
2023-01-01T08:08:55.351Z,100.00
2023-01-01T08:13:57.183Z,100.00
2023-01-01T08:18:58.786Z,100.00
2023-01-01T08:24:00.421Z,100.00
2023-01-01T08:29:05.055Z,100.00
2023-01-01T08:34:06.918Z,100.00
2023-01-01T08:39:08.945Z,100.00
2023-01-01T08:44:10.965Z,100.00
2023-01-01T08:49:13.164Z,100.00
2023-01-01T08:54:15.163Z,100.00
2023-01-01T08:59:16.987Z,100.00
2023-01-01T09:04:18.671Z,100.00
2023-01-01T09:09:22.319Z,100.00
2023-01-01T09:14:27.323Z,100.00
2023-01-01T09:19:28.959Z,100.00
2023-01-01T09:24:30.762Z,100.00
2023-01-01T09:29:32.339Z,100.00
2023-01-01T09:34:33.942Z,100.00
2023-01-01T09:39:35.772Z,100.00
2023-01-01T09:44:46.285Z,100.00
2023-01-01T09:49:50.038Z,100.00
2023-01-01T09:55:03.250Z,100.00
2023-01-01T10:00:15.523Z,100.00
2023-01-01T10:05:35.298Z,100.00
2023-01-01T10:11:15.188Z,100.00
2023-01-01T10:16:39.495Z,100.00
2023-01-01T10:21:47.206Z,100.00
2023-01-01T10:26:50.787Z,100.00
2023-01-01T10:31:55.192Z,100.00
2023-01-01T10:37:00.681Z,100.00
2023-01-01T10:42:03.458Z,100.00
2023-01-01T10:47:28.327Z,100.00
2023-01-01T10:52:36.053Z,100.00
2023-01-01T10:57:38.766Z,100.00
2023-01-01T11:02:40.439Z,100.00
2023-01-01T11:07:43.331Z,100.00
2023-01-01T11:18:36.123Z,100.00
2023-01-01T11:23:39.907Z,100.00
2023-01-01T11:28:42.126Z,100.00
2023-01-01T11:33:45.971Z,100.00
2023-01-01T11:38:51.102Z,100.00
2023-01-01T11:43:53.110Z,99.51
2023-01-01T11:48:55.234Z,99.96
2023-01-01T11:54:22.967Z,99.64
2023-01-01T11:59:30.142Z,98.89
2023-01-01T12:04:39.992Z,98.76
2023-01-01T12:09:51.252Z,98.82
2023-01-01T12:15:00.517Z,98.33
2023-01-01T12:20:11.104Z,97.97
2023-01-01T12:25:16.657Z,97.83
2023-01-01T12:30:26.028Z,97.36
2023-01-01T12:35:44.667Z,97.19
2023-01-01T12:41:15.471Z,96.81
2023-01-01T12:46:43.367Z,96.45
2023-01-01T12:52:07.867Z,96.05
2023-01-01T12:57:34.030Z,95.42
2023-01-01T13:02:46.983Z,95.48
2023-01-01T13:07:54.948Z,96.37
2023-01-01T13:12:57.232Z,96.74
2023-01-01T13:17:59.001Z,96.62
2023-01-01T13:23:00.608Z,96.41
2023-01-01T13:28:04.278Z,96.36
2023-01-01T13:33:33.222Z,96.86
2023-01-01T13:39:00.886Z,96.92
2023-01-01T13:44:05.140Z,97.14
2023-01-01T13:49:38.819Z,97.30
2023-01-01T13:55:10.548Z,97.63
2023-01-01T14:00:35.949Z,97.89
2023-01-01T14:05:58.636Z,97.78
2023-01-01T14:11:04.930Z,98.20
2023-01-01T14:16:10.884Z,98.26
2023-01-01T14:21:21.561Z,98.60
2023-01-01T14:26:26.256Z,98.88
2023-01-01T14:31:35.404Z,98.48
2023-01-01T14:36:37.026Z,98.55
2023-01-01T14:41:42.846Z,98.66
2023-01-01T14:46:48.275Z,98.75
2023-01-01T14:52:02.534Z,98.95
2023-01-01T14:57:10.639Z,98.85
2023-01-01T15:02:12.420Z,99.11
2023-01-01T15:07:22.272Z,99.28
2023-01-01T15:12:24.176Z,99.55
2023-01-01T15:17:27.249Z,100.00
2023-01-01T15:22:39.096Z,100.00
2023-01-01T15:27:41.092Z,100.00
2023-01-01T15:32:42.727Z,100.00
2023-01-01T15:37:52.504Z,100.00
2023-01-01T15:42:56.845Z,100.00
2023-01-01T15:48:17.630Z,100.00
2023-01-01T15:53:25.490Z,100.00
2023-01-01T15:58:35.163Z,100.00
2023-01-01T16:03:38.910Z,100.00
2023-01-01T16:08:40.689Z,100.00
2023-01-01T16:13:42.353Z,100.00
2023-01-01T16:18:44.396Z,100.00
2023-01-01T16:23:46.151Z,100.00
2023-01-01T16:28:48.363Z,100.00
2023-01-01T16:33:56.778Z,100.00
2023-01-01T16:38:59.365Z,100.00
2023-01-01T16:44:00.999Z,100.00
2023-01-01T16:49:04.539Z,100.00
2023-01-01T16:54:06.235Z,100.00
2023-01-01T16:59:07.916Z,100.00
2023-01-01T17:04:09.806Z,100.00
2023-01-01T17:09:11.629Z,100.00
2023-01-01T17:14:13.283Z,100.00
2023-01-01T17:19:16.709Z,100.00
2023-01-01T17:24:21.332Z,100.00
2023-01-01T17:29:24.830Z,100.00
2023-01-01T17:34:26.537Z,100.00
2023-01-01T17:39:28.138Z,100.00
2023-01-01T17:44:30.642Z,100.00
2023-01-01T17:49:32.273Z,100.00
2023-01-01T17:54:33.927Z,100.00
2023-01-01T17:59:35.567Z,100.00
2023-01-01T18:04:37.834Z,100.00
2023-01-01T18:09:40.420Z,100.00
2023-01-01T18:14:42.062Z,100.00
2023-01-01T18:19:43.687Z,100.00
2023-01-01T18:24:48.364Z,100.00
2023-01-01T18:29:50.334Z,100.00
2023-01-01T18:34:51.923Z,100.00
2023-01-01T18:39:53.737Z,100.00
2023-01-01T18:44:58.510Z,100.00
2023-01-01T18:50:14.403Z,100.00
2023-01-01T18:55:19.421Z,100.00
2023-01-01T19:00:26.086Z,100.00
2023-01-01T19:05:29.180Z,100.00
2023-01-01T19:10:44.291Z,100.00
2023-01-01T19:16:00.770Z,100.00
2023-01-01T19:21:11.616Z,100.00
2023-01-01T19:26:40.288Z,100.00
2023-01-01T19:31:42.162Z,100.00
2023-01-01T19:36:44.612Z,100.00
2023-01-01T19:41:46.934Z,100.00
2023-01-01T19:46:48.600Z,100.00
2023-01-01T19:51:51.373Z,100.00
2023-01-01T19:56:53.532Z,100.00
2023-01-01T20:02:25.840Z,100.00
2023-01-01T20:07:17.480Z,100.00
2023-01-01T20:12:19.083Z,100.00
2023-01-01T20:17:20.805Z,100.00
2023-01-01T20:22:22.584Z,100.00
2023-01-01T20:27:26.958Z,100.00
2023-01-01T20:32:29.005Z,100.00
2023-01-01T20:37:36.614Z,100.00
2023-01-01T20:42:38.258Z,100.00
2023-01-01T20:47:39.903Z,100.00
2023-01-01T20:52:41.512Z,100.00
2023-01-01T20:57:43.147Z,100.00
2023-01-01T21:02:45.060Z,100.00
2023-01-01T21:07:46.709Z,100.00
2023-01-01T21:12:48.286Z,100.00
2023-01-01T21:17:50.089Z,100.00
2023-01-01T21:22:52.303Z,100.00
2023-01-01T21:27:54.120Z,100.00
2023-01-01T21:32:55.793Z,100.00
2023-01-01T21:37:58.976Z,100.00
2023-01-01T21:43:19.281Z,100.00
2023-01-01T21:49:02.959Z,100.00
2023-01-01T21:54:10.709Z,100.00
2023-01-01T21:59:28.798Z,100.00
2023-01-01T22:04:40.877Z,100.00
2023-01-01T22:09:46.289Z,100.00
2023-01-01T22:14:50.577Z,100.00
2023-01-01T22:19:54.907Z,100.00
2023-01-01T22:24:59.681Z,100.00
2023-01-01T22:30:41.138Z,100.00
2023-01-01T22:35:42.983Z,100.00
2023-01-01T22:40:48.712Z,100.00
2023-01-01T22:45:50.847Z,100.00
2023-01-01T22:50:54.166Z,100.00
2023-01-01T22:55:56.872Z,100.00
2023-01-01T23:00:58.474Z,100.00
2023-01-01T23:06:00.438Z,100.00
2023-01-01T23:11:02.656Z,100.00
2023-01-01T23:16:04.992Z,100.00
2023-01-01T23:21:11.318Z,100.00
2023-01-01T23:26:13.074Z,100.00
2023-01-01T23:31:24.319Z,100.00
2023-01-01T23:36:28.480Z,100.00
2023-01-01T23:41:30.385Z,100.00
2023-01-01T23:46:34.540Z,100.00
2023-01-01T23:51:38.688Z,100.00
2023-01-01T23:56:40.330Z,100.00
